sensor_id;sensor_type;location;lat;lon;timestamp;P1;durP1;ratioP1;P2;durP2;ratioP2
19388;SDS011;9830;41.876;23.474;2023-04-03T00:01:15;0.20;;;0.20;;
19388;SDS011;9830;41.876;23.474;2023-04-03T00:03:41;0.23;;;0.23;;
19388;SDS011;9830;41.876;23.474;2023-04-03T00:06:08;0.00;;;0.00;;
19388;SDS011;9830;41.876;23.474;2023-04-03T00:08:36;0.00;;;0.00;;
19388;SDS011;9830;41.876;23.474;2023-04-03T00:11:03;0.00;;;0.00;;
19388;SDS011;9830;41.876;23.474;2023-04-03T00:13:30;0.43;;;0.40;;
19388;SDS011;9830;41.876;23.474;2023-04-03T00:15:56;1.07;;;0.73;;
19388;SDS011;9830;41.876;23.474;2023-04-03T00:18:22;0.47;;;0.47;;
19388;SDS011;9830;41.876;23.474;2023-04-03T00:20:48;0.00;;;0.00;;
19388;SDS011;9830;41.876;23.474;2023-04-03T00:23:14;0.10;;;0.10;;
19388;SDS011;9830;41.876;23.474;2023-04-03T00:25:40;1.37;;;1.27;;
19388;SDS011;9830;41.876;23.474;2023-04-03T00:28:06;0.30;;;0.30;;
19388;SDS011;9830;41.876;23.474;2023-04-03T00:30:32;0.13;;;0.13;;
19388;SDS011;9830;41.876;23.474;2023-04-03T00:32:57;0.00;;;0.00;;
19388;SDS011;9830;41.876;23.474;2023-04-03T00:35:23;0.30;;;0.30;;
19388;SDS011;9830;41.876;23.474;2023-04-03T00:37:53;4.00;;;0.40;;
19388;SDS011;9830;41.876;23.474;2023-04-03T00:40:21;0.00;;;0.00;;
19388;SDS011;9830;41.876;23.474;2023-04-03T00:42:49;0.10;;;0.10;;
19388;SDS011;9830;41.876;23.474;2023-04-03T00:45:23;0.07;;;0.00;;
19388;SDS011;9830;41.876;23.474;2023-04-03T00:48:04;0.00;;;0.00;;
19388;SDS011;9830;41.876;23.474;2023-04-03T00:50:31;0.00;;;0.00;;
19388;SDS011;9830;41.876;23.474;2023-04-03T00:53:00;0.00;;;0.00;;
19388;SDS011;9830;41.876;23.474;2023-04-03T00:55:26;0.20;;;0.20;;
19388;SDS011;9830;41.876;23.474;2023-04-03T00:57:53;0.10;;;0.10;;
19388;SDS011;9830;41.876;23.474;2023-04-03T01:00:21;0.00;;;0.00;;
19388;SDS011;9830;41.876;23.474;2023-04-03T01:02:48;0.00;;;0.00;;
19388;SDS011;9830;41.876;23.474;2023-04-03T01:05:15;5.87;;;0.53;;
19388;SDS011;9830;41.876;23.474;2023-04-03T01:07:41;0.10;;;0.10;;
19388;SDS011;9830;41.876;23.474;2023-04-03T01:10:08;0.77;;;0.73;;
19388;SDS011;9830;41.876;23.474;2023-04-03T01:12:40;0.10;;;0.10;;
19388;SDS011;9830;41.876;23.474;2023-04-03T01:17:34;0.07;;;0.07;;
19388;SDS011;9830;41.876;23.474;2023-04-03T01:25:46;0.00;;;0.00;;
19388;SDS011;9830;41.876;23.474;2023-04-03T01:28:33;0.03;;;0.03;;
19388;SDS011;9830;41.876;23.474;2023-04-03T01:33:35;1.03;;;0.60;;
19388;SDS011;9830;41.876;23.474;2023-04-03T01:36:02;0.00;;;0.00;;
19388;SDS011;9830;41.876;23.474;2023-04-03T01:38:28;0.63;;;0.30;;
19388;SDS011;9830;41.876;23.474;2023-04-03T01:40:54;0.00;;;0.00;;
19388;SDS011;9830;41.876;23.474;2023-04-03T01:43:19;0.87;;;0.67;;
19388;SDS011;9830;41.876;23.474;2023-04-03T01:45:45;0.83;;;0.53;;
19388;SDS011;9830;41.876;23.474;2023-04-03T01:48:11;0.40;;;0.30;;
19388;SDS011;9830;41.876;23.474;2023-04-03T01:50:38;0.10;;;0.10;;
19388;SDS011;9830;41.876;23.474;2023-04-03T01:53:03;0.53;;;0.20;;
19388;SDS011;9830;41.876;23.474;2023-04-03T01:55:29;0.00;;;0.00;;
19388;SDS011;9830;41.876;23.474;2023-04-03T01:57:55;0.20;;;0.20;;
19388;SDS011;9830;41.876;23.474;2023-04-03T02:00:21;0.40;;;0.40;;
19388;SDS011;9830;41.876;23.474;2023-04-03T02:02:46;0.80;;;0.80;;
19388;SDS011;9830;41.876;23.474;2023-04-03T02:05:12;0.00;;;0.00;;
19388;SDS011;9830;41.876;23.474;2023-04-03T02:07:38;0.00;;;0.00;;
19388;SDS011;9830;41.876;23.474;2023-04-03T02:10:03;0.03;;;0.03;;
19388;SDS011;9830;41.876;23.474;2023-04-03T02:12:29;0.00;;;0.00;;
19388;SDS011;9830;41.876;23.474;2023-04-03T02:14:55;0.10;;;0.10;;
19388;SDS011;9830;41.876;23.474;2023-04-03T02:17:21;1.33;;;0.77;;
19388;SDS011;9830;41.876;23.474;2023-04-03T02:19:46;0.50;;;0.50;;
19388;SDS011;9830;41.876;23.474;2023-04-03T02:22:12;1.70;;;0.57;;
19388;SDS011;9830;41.876;23.474;2023-04-03T02:24:38;0.20;;;0.20;;
19388;SDS011;9830;41.876;23.474;2023-04-03T02:27:05;0.67;;;0.47;;
19388;SDS011;9830;41.876;23.474;2023-04-03T02:29:31;6.30;;;0.97;;
19388;SDS011;9830;41.876;23.474;2023-04-03T02:31:56;0.30;;;0.23;;
19388;SDS011;9830;41.876;23.474;2023-04-03T02:34:22;0.50;;;0.50;;
19388;SDS011;9830;41.876;23.474;2023-04-03T02:36:48;2.50;;;1.03;;
19388;SDS011;9830;41.876;23.474;2023-04-03T02:39:14;0.50;;;0.50;;
19388;SDS011;9830;41.876;23.474;2023-04-03T02:41:39;0.00;;;0.00;;
19388;SDS011;9830;41.876;23.474;2023-04-03T02:44:06;0.40;;;0.40;;
19388;SDS011;9830;41.876;23.474;2023-04-03T02:46:32;0.57;;;0.57;;
19388;SDS011;9830;41.876;23.474;2023-04-03T02:48:58;1.37;;;0.40;;
19388;SDS011;9830;41.876;23.474;2023-04-03T02:51:24;2.13;;;0.63;;
19388;SDS011;9830;41.876;23.474;2023-04-03T02:53:50;0.40;;;0.40;;
19388;SDS011;9830;41.876;23.474;2023-04-03T02:56:16;4.63;;;1.17;;
19388;SDS011;9830;41.876;23.474;2023-04-03T02:58:43;1.23;;;0.70;;
19388;SDS011;9830;41.876;23.474;2023-04-03T03:01:09;0.00;;;0.00;;
19388;SDS011;9830;41.876;23.474;2023-04-03T03:03:35;0.30;;;0.30;;
19388;SDS011;9830;41.876;23.474;2023-04-03T03:06:05;0.00;;;0.00;;
19388;SDS011;9830;41.876;23.474;2023-04-03T03:08:39;0.10;;;0.10;;
19388;SDS011;9830;41.876;23.474;2023-04-03T03:11:06;0.20;;;0.20;;
19388;SDS011;9830;41.876;23.474;2023-04-03T03:13:32;0.20;;;0.20;;
19388;SDS011;9830;41.876;23.474;2023-04-03T03:15:58;0.47;;;0.47;;
19388;SDS011;9830;41.876;23.474;2023-04-03T03:18:24;0.10;;;0.10;;
19388;SDS011;9830;41.876;23.474;2023-04-03T03:20:51;0.50;;;0.50;;
19388;SDS011;9830;41.876;23.474;2023-04-03T03:23:18;0.33;;;0.33;;
19388;SDS011;9830;41.876;23.474;2023-04-03T03:25:43;0.00;;;0.00;;
19388;SDS011;9830;41.876;23.474;2023-04-03T03:28:09;5.20;;;1.43;;
19388;SDS011;9830;41.876;23.474;2023-04-03T03:30:35;0.17;;;0.03;;
19388;SDS011;9830;41.876;23.474;2023-04-03T03:33:01;0.50;;;0.50;;
19388;SDS011;9830;41.876;23.474;2023-04-03T03:35:26;0.33;;;0.33;;
19388;SDS011;9830;41.876;23.474;2023-04-03T03:37:52;0.47;;;0.47;;
19388;SDS011;9830;41.876;23.474;2023-04-03T03:40:18;0.13;;;0.13;;
19388;SDS011;9830;41.876;23.474;2023-04-03T03:42:43;0.00;;;0.00;;
19388;SDS011;9830;41.876;23.474;2023-04-03T03:45:09;0.43;;;0.10;;
19388;SDS011;9830;41.876;23.474;2023-04-03T03:47:35;0.37;;;0.37;;
19388;SDS011;9830;41.876;23.474;2023-04-03T03:50:01;0.10;;;0.10;;
19388;SDS011;9830;41.876;23.474;2023-04-03T03:52:27;0.20;;;0.20;;
19388;SDS011;9830;41.876;23.474;2023-04-03T03:54:53;0.73;;;0.50;;
19388;SDS011;9830;41.876;23.474;2023-04-03T03:57:19;0.00;;;0.00;;
19388;SDS011;9830;41.876;23.474;2023-04-03T03:59:45;0.00;;;0.00;;
19388;SDS011;9830;41.876;23.474;2023-04-03T04:02:12;0.23;;;0.23;;
19388;SDS011;9830;41.876;23.474;2023-04-03T04:04:38;0.10;;;0.10;;
19388;SDS011;9830;41.876;23.474;2023-04-03T04:07:03;0.00;;;0.00;;
19388;SDS011;9830;41.876;23.474;2023-04-03T04:09:29;0.00;;;0.00;;
19388;SDS011;9830;41.876;23.474;2023-04-03T04:11:55;0.20;;;0.20;;
19388;SDS011;9830;41.876;23.474;2023-04-03T04:14:21;0.77;;;0.77;;
19388;SDS011;9830;41.876;23.474;2023-04-03T04:16:49;0.07;;;0.07;;
19388;SDS011;9830;41.876;23.474;2023-04-03T04:19:15;0.50;;;0.50;;
19388;SDS011;9830;41.876;23.474;2023-04-03T04:21:40;0.53;;;0.40;;
19388;SDS011;9830;41.876;23.474;2023-04-03T04:24:07;2.33;;;0.40;;
19388;SDS011;9830;41.876;23.474;2023-04-03T04:26:33;1.23;;;0.30;;
19388;SDS011;9830;41.876;23.474;2023-04-03T04:28:59;0.40;;;0.40;;
19388;SDS011;9830;41.876;23.474;2023-04-03T04:31:25;0.30;;;0.30;;
19388;SDS011;9830;41.876;23.474;2023-04-03T04:33:51;0.30;;;0.30;;
19388;SDS011;9830;41.876;23.474;2023-04-03T04:36:17;0.30;;;0.30;;
19388;SDS011;9830;41.876;23.474;2023-04-03T04:38:43;0.20;;;0.20;;
19388;SDS011;9830;41.876;23.474;2023-04-03T04:41:09;6.20;;;2.10;;
19388;SDS011;9830;41.876;23.474;2023-04-03T04:43:35;0.40;;;0.40;;
19388;SDS011;9830;41.876;23.474;2023-04-03T04:46:05;1.20;;;1.10;;
19388;SDS011;9830;41.876;23.474;2023-04-03T04:48:33;0.67;;;0.67;;
19388;SDS011;9830;41.876;23.474;2023-04-03T04:50:59;2.57;;;1.20;;
19388;SDS011;9830;41.876;23.474;2023-04-03T04:53:25;1.77;;;0.93;;
19388;SDS011;9830;41.876;23.474;2023-04-03T04:55:52;1.97;;;1.87;;
19388;SDS011;9830;41.876;23.474;2023-04-03T04:58:18;1.80;;;0.87;;
19388;SDS011;9830;41.876;23.474;2023-04-03T05:00:44;1.17;;;1.17;;
19388;SDS011;9830;41.876;23.474;2023-04-03T05:03:10;2.97;;;2.17;;
19388;SDS011;9830;41.876;23.474;2023-04-03T05:05:36;0.57;;;0.57;;
19388;SDS011;9830;41.876;23.474;2023-04-03T05:08:02;7.80;;;6.27;;
19388;SDS011;9830;41.876;23.474;2023-04-03T05:10:28;1.20;;;1.10;;
19388;SDS011;9830;41.876;23.474;2023-04-03T05:12:54;0.40;;;0.40;;
19388;SDS011;9830;41.876;23.474;2023-04-03T05:15:20;0.00;;;0.00;;
19388;SDS011;9830;41.876;23.474;2023-04-03T05:17:46;0.33;;;0.33;;
19388;SDS011;9830;41.876;23.474;2023-04-03T05:20:12;0.20;;;0.20;;
19388;SDS011;9830;41.876;23.474;2023-04-03T05:22:38;1.40;;;0.63;;
19388;SDS011;9830;41.876;23.474;2023-04-03T05:25:04;1.70;;;1.10;;
19388;SDS011;9830;41.876;23.474;2023-04-03T05:27:30;3.13;;;1.27;;
19388;SDS011;9830;41.876;23.474;2023-04-03T05:29:56;2.00;;;1.00;;
19388;SDS011;9830;41.876;23.474;2023-04-03T05:32:23;0.50;;;0.50;;
19388;SDS011;9830;41.876;23.474;2023-04-03T05:34:50;1.97;;;1.43;;
19388;SDS011;9830;41.876;23.474;2023-04-03T05:37:16;0.93;;;0.93;;
19388;SDS011;9830;41.876;23.474;2023-04-03T05:39:42;0.40;;;0.40;;
19388;SDS011;9830;41.876;23.474;2023-04-03T05:42:08;1.23;;;1.17;;
19388;SDS011;9830;41.876;23.474;2023-04-03T05:44:36;3.70;;;1.37;;
19388;SDS011;9830;41.876;23.474;2023-04-03T05:47:02;27.97;;;10.37;;
19388;SDS011;9830;41.876;23.474;2023-04-03T05:49:28;13.10;;;5.47;;
19388;SDS011;9830;41.876;23.474;2023-04-03T05:51:54;11.20;;;4.97;;
19388;SDS011;9830;41.876;23.474;2023-04-03T05:54:24;3.57;;;3.27;;
19388;SDS011;9830;41.876;23.474;2023-04-03T05:56:52;3.50;;;1.80;;
19388;SDS011;9830;41.876;23.474;2023-04-03T05:59:18;17.23;;;1.27;;
19388;SDS011;9830;41.876;23.474;2023-04-03T06:01:46;1.47;;;1.37;;
19388;SDS011;9830;41.876;23.474;2023-04-03T06:04:12;4.77;;;2.13;;
19388;SDS011;9830;41.876;23.474;2023-04-03T06:06:56;5.83;;;4.10;;
19388;SDS011;9830;41.876;23.474;2023-04-03T06:09:26;21.00;;;5.00;;
19388;SDS011;9830;41.876;23.474;2023-04-03T06:11:54;9.57;;;4.67;;
19388;SDS011;9830;41.876;23.474;2023-04-03T06:14:20;5.27;;;4.03;;
19388;SDS011;9830;41.876;23.474;2023-04-03T06:16:46;9.53;;;3.40;;
19388;SDS011;9830;41.876;23.474;2023-04-03T06:19:12;7.90;;;3.93;;
19388;SDS011;9830;41.876;23.474;2023-04-03T06:21:38;1.70;;;1.60;;
19388;SDS011;9830;41.876;23.474;2023-04-03T06:24:04;2.20;;;1.37;;
19388;SDS011;9830;41.876;23.474;2023-04-03T06:26:31;1.63;;;1.53;;
19388;SDS011;9830;41.876;23.474;2023-04-03T06:28:57;5.53;;;2.77;;
19388;SDS011;9830;41.876;23.474;2023-04-03T06:31:22;4.10;;;3.50;;
19388;SDS011;9830;41.876;23.474;2023-04-03T06:33:48;3.43;;;1.40;;
19388;SDS011;9830;41.876;23.474;2023-04-03T06:36:14;2.10;;;1.67;;
19388;SDS011;9830;41.876;23.474;2023-04-03T06:38:45;2.20;;;1.60;;
19388;SDS011;9830;41.876;23.474;2023-04-03T06:41:10;1.40;;;1.30;;
19388;SDS011;9830;41.876;23.474;2023-04-03T06:43:36;14.50;;;3.17;;
19388;SDS011;9830;41.876;23.474;2023-04-03T06:46:02;2.33;;;2.00;;
19388;SDS011;9830;41.876;23.474;2023-04-03T06:48:28;5.27;;;3.50;;
19388;SDS011;9830;41.876;23.474;2023-04-03T06:50:54;2.13;;;2.03;;
19388;SDS011;9830;41.876;23.474;2023-04-03T06:53:20;3.57;;;3.07;;
19388;SDS011;9830;41.876;23.474;2023-04-03T06:55:46;8.90;;;3.93;;
19388;SDS011;9830;41.876;23.474;2023-04-03T06:58:12;1.83;;;1.73;;
19388;SDS011;9830;41.876;23.474;2023-04-03T07:00:40;12.20;;;4.30;;
19388;SDS011;9830;41.876;23.474;2023-04-03T07:03:06;2.87;;;2.67;;
19388;SDS011;9830;41.876;23.474;2023-04-03T07:05:32;3.70;;;2.60;;
19388;SDS011;9830;41.876;23.474;2023-04-03T07:07:57;2.70;;;1.97;;
19388;SDS011;9830;41.876;23.474;2023-04-03T07:10:23;5.93;;;3.27;;
19388;SDS011;9830;41.876;23.474;2023-04-03T07:12:49;9.30;;;3.37;;
19388;SDS011;9830;41.876;23.474;2023-04-03T07:15:14;2.63;;;2.43;;
19388;SDS011;9830;41.876;23.474;2023-04-03T07:17:40;2.47;;;2.27;;
19388;SDS011;9830;41.876;23.474;2023-04-03T07:20:06;10.37;;;2.53;;
19388;SDS011;9830;41.876;23.474;2023-04-03T07:22:33;7.10;;;3.27;;
19388;SDS011;9830;41.876;23.474;2023-04-03T07:24:59;6.20;;;2.70;;
19388;SDS011;9830;41.876;23.474;2023-04-03T07:27:25;4.53;;;2.30;;
19388;SDS011;9830;41.876;23.474;2023-04-03T07:29:51;5.50;;;3.90;;
19388;SDS011;9830;41.876;23.474;2023-04-03T07:32:17;5.10;;;3.60;;
19388;SDS011;9830;41.876;23.474;2023-04-03T07:34:43;3.63;;;2.27;;
19388;SDS011;9830;41.876;23.474;2023-04-03T07:37:09;5.17;;;1.83;;
19388;SDS011;9830;41.876;23.474;2023-04-03T07:39:35;6.67;;;2.07;;
19388;SDS011;9830;41.876;23.474;2023-04-03T07:42:01;9.43;;;2.60;;
19388;SDS011;9830;41.876;23.474;2023-04-03T07:44:27;10.33;;;5.00;;
19388;SDS011;9830;41.876;23.474;2023-04-03T07:46:54;18.17;;;5.47;;
19388;SDS011;9830;41.876;23.474;2023-04-03T07:49:25;9.93;;;4.40;;
19388;SDS011;9830;41.876;23.474;2023-04-03T07:51:51;13.47;;;6.10;;
19388;SDS011;9830;41.876;23.474;2023-04-03T07:54:17;12.20;;;6.43;;
19388;SDS011;9830;41.876;23.474;2023-04-03T07:56:43;17.77;;;4.77;;
19388;SDS011;9830;41.876;23.474;2023-04-03T07:59:10;3.60;;;3.30;;
19388;SDS011;9830;41.876;23.474;2023-04-03T08:01:36;16.90;;;5.53;;
19388;SDS011;9830;41.876;23.474;2023-04-03T08:04:02;22.47;;;9.60;;
19388;SDS011;9830;41.876;23.474;2023-04-03T08:06:28;29.37;;;4.57;;
19388;SDS011;9830;41.876;23.474;2023-04-03T08:08:58;3.40;;;2.53;;
19388;SDS011;9830;41.876;23.474;2023-04-03T08:11:24;9.37;;;5.73;;
19388;SDS011;9830;41.876;23.474;2023-04-03T08:13:51;7.00;;;3.47;;
19388;SDS011;9830;41.876;23.474;2023-04-03T08:16:18;10.67;;;4.50;;
19388;SDS011;9830;41.876;23.474;2023-04-03T08:18:46;20.00;;;5.00;;
19388;SDS011;9830;41.876;23.474;2023-04-03T08:21:12;9.97;;;5.33;;
19388;SDS011;9830;41.876;23.474;2023-04-03T08:23:38;10.07;;;4.37;;
19388;SDS011;9830;41.876;23.474;2023-04-03T08:26:10;9.60;;;4.93;;
19388;SDS011;9830;41.876;23.474;2023-04-03T08:28:41;12.60;;;4.60;;
19388;SDS011;9830;41.876;23.474;2023-04-03T08:31:08;5.13;;;4.47;;
19388;SDS011;9830;41.876;23.474;2023-04-03T08:33:38;7.30;;;3.53;;
19388;SDS011;9830;41.876;23.474;2023-04-03T08:36:05;2.60;;;2.40;;
19388;SDS011;9830;41.876;23.474;2023-04-03T08:38:33;4.33;;;2.23;;
19388;SDS011;9830;41.876;23.474;2023-04-03T08:41:04;3.93;;;2.00;;
19388;SDS011;9830;41.876;23.474;2023-04-03T08:46:36;1.60;;;1.47;;
19388;SDS011;9830;41.876;23.474;2023-04-03T08:49:21;1.80;;;1.70;;
19388;SDS011;9830;41.876;23.474;2023-04-03T08:51:51;4.93;;;1.33;;
19388;SDS011;9830;41.876;23.474;2023-04-03T08:54:25;1.90;;;1.77;;
19388;SDS011;9830;41.876;23.474;2023-04-03T08:56:55;2.50;;;1.13;;
19388;SDS011;9830;41.876;23.474;2023-04-03T08:59:25;3.03;;;1.17;;
19388;SDS011;9830;41.876;23.474;2023-04-03T09:01:55;4.77;;;2.13;;
19388;SDS011;9830;41.876;23.474;2023-04-03T09:04:24;4.63;;;0.87;;
19388;SDS011;9830;41.876;23.474;2023-04-03T09:06:56;4.93;;;3.40;;
19388;SDS011;9830;41.876;23.474;2023-04-03T09:09:35;1.03;;;1.00;;
19388;SDS011;9830;41.876;23.474;2023-04-03T09:12:17;0.73;;;0.73;;
19388;SDS011;9830;41.876;23.474;2023-04-03T09:26:09;3.57;;;2.13;;
19388;SDS011;9830;41.876;23.474;2023-04-03T09:29:00;0.87;;;0.87;;
19388;SDS011;9830;41.876;23.474;2023-04-03T09:31:42;3.47;;;2.07;;
19388;SDS011;9830;41.876;23.474;2023-04-03T09:34:22;3.37;;;2.07;;
19388;SDS011;9830;41.876;23.474;2023-04-03T09:36:54;3.67;;;1.40;;
19388;SDS011;9830;41.876;23.474;2023-04-03T09:39:25;4.90;;;2.83;;
19388;SDS011;9830;41.876;23.474;2023-04-03T09:42:03;3.13;;;1.93;;
19388;SDS011;9830;41.876;23.474;2023-04-03T09:44:34;1.77;;;1.67;;
19388;SDS011;9830;41.876;23.474;2023-04-03T09:47:35;6.60;;;2.63;;
19388;SDS011;9830;41.876;23.474;2023-04-03T09:52:43;6.10;;;2.50;;
19388;SDS011;9830;41.876;23.474;2023-04-03T09:55:15;2.43;;;2.07;;
19388;SDS011;9830;41.876;23.474;2023-04-03T09:57:41;2.63;;;1.97;;
19388;SDS011;9830;41.876;23.474;2023-04-03T10:00:27;2.10;;;2.00;;
19388;SDS011;9830;41.876;23.474;2023-04-03T10:03:04;4.40;;;3.03;;
19388;SDS011;9830;41.876;23.474;2023-04-03T10:05:39;2.10;;;1.90;;
19388;SDS011;9830;41.876;23.474;2023-04-03T10:10:37;4.50;;;2.93;;
19388;SDS011;9830;41.876;23.474;2023-04-03T10:13:09;3.17;;;2.93;;
19388;SDS011;9830;41.876;23.474;2023-04-03T10:15:44;5.27;;;3.03;;
19388;SDS011;9830;41.876;23.474;2023-04-03T10:18:48;4.40;;;3.00;;
19388;SDS011;9830;41.876;23.474;2023-04-03T10:24:02;2.87;;;2.20;;
19388;SDS011;9830;41.876;23.474;2023-04-03T10:43:36;3.00;;;1.10;;
19388;SDS011;9830;41.876;23.474;2023-04-03T10:51:45;0.60;;;0.60;;
19388;SDS011;9830;41.876;23.474;2023-04-03T10:57:08;0.53;;;0.53;;
19388;SDS011;9830;41.876;23.474;2023-04-03T11:02:14;1.13;;;0.87;;
19388;SDS011;9830;41.876;23.474;2023-04-03T11:05:07;0.47;;;0.47;;
19388;SDS011;9830;41.876;23.474;2023-04-03T11:08:03;0.60;;;0.60;;
19388;SDS011;9830;41.876;23.474;2023-04-03T11:10:39;0.83;;;0.63;;
19388;SDS011;9830;41.876;23.474;2023-04-03T11:13:15;0.37;;;0.37;;
19388;SDS011;9830;41.876;23.474;2023-04-03T11:15:45;0.77;;;0.77;;
19388;SDS011;9830;41.876;23.474;2023-04-03T11:18:19;0.60;;;0.60;;
19388;SDS011;9830;41.876;23.474;2023-04-03T11:21:02;1.00;;;0.90;;
19388;SDS011;9830;41.876;23.474;2023-04-03T11:23:36;0.63;;;0.43;;
19388;SDS011;9830;41.876;23.474;2023-04-03T11:26:07;0.67;;;0.67;;
19388;SDS011;9830;41.876;23.474;2023-04-03T11:28:37;0.37;;;0.33;;
19388;SDS011;9830;41.876;23.474;2023-04-03T11:36:28;4.10;;;2.37;;
19388;SDS011;9830;41.876;23.474;2023-04-03T11:38:59;4.23;;;3.37;;
19388;SDS011;9830;41.876;23.474;2023-04-03T11:41:32;11.00;;;3.20;;
19388;SDS011;9830;41.876;23.474;2023-04-03T11:44:04;15.83;;;1.33;;
19388;SDS011;9830;41.876;23.474;2023-04-03T11:46:50;1.13;;;0.90;;
19388;SDS011;9830;41.876;23.474;2023-04-03T11:49:50;2.00;;;1.83;;
19388;SDS011;9830;41.876;23.474;2023-04-03T12:05:56;2.27;;;2.13;;
19388;SDS011;9830;41.876;23.474;2023-04-03T12:13:42;3.37;;;2.50;;
19388;SDS011;9830;41.876;23.474;2023-04-03T12:32:08;2.63;;;2.30;;
19388;SDS011;9830;41.876;23.474;2023-04-03T12:37:44;2.97;;;1.00;;
19388;SDS011;9830;41.876;23.474;2023-04-03T12:43:28;5.77;;;3.20;;
19388;SDS011;9830;41.876;23.474;2023-04-03T12:46:03;1.30;;;0.77;;
19388;SDS011;9830;41.876;23.474;2023-04-03T12:48:56;0.53;;;0.53;;
19388;SDS011;9830;41.876;23.474;2023-04-03T12:54:13;0.77;;;0.73;;
19388;SDS011;9830;41.876;23.474;2023-04-03T12:56:40;0.70;;;0.57;;
19388;SDS011;9830;41.876;23.474;2023-04-03T12:59:13;0.20;;;0.20;;
19388;SDS011;9830;41.876;23.474;2023-04-03T13:01:40;0.40;;;0.37;;
19388;SDS011;9830;41.876;23.474;2023-04-03T13:04:05;4.37;;;2.47;;
19388;SDS011;9830;41.876;23.474;2023-04-03T13:06:34;2.47;;;0.83;;
19388;SDS011;9830;41.876;23.474;2023-04-03T13:09:05;0.27;;;0.27;;
19388;SDS011;9830;41.876;23.474;2023-04-03T13:11:42;0.37;;;0.10;;
19388;SDS011;9830;41.876;23.474;2023-04-03T13:14:20;0.27;;;0.27;;
19388;SDS011;9830;41.876;23.474;2023-04-03T13:17:20;0.70;;;0.37;;
19388;SDS011;9830;41.876;23.474;2023-04-03T13:19:40;0.07;;;0.07;;
19388;SDS011;9830;41.876;23.474;2023-04-03T13:25:06;0.00;;;0.00;;
19388;SDS011;9830;41.876;23.474;2023-04-03T13:27:34;5.43;;;0.83;;
19388;SDS011;9830;41.876;23.474;2023-04-03T13:30:01;0.10;;;0.10;;
19388;SDS011;9830;41.876;23.474;2023-04-03T13:32:29;0.23;;;0.23;;
19388;SDS011;9830;41.876;23.474;2023-04-03T13:34:56;0.00;;;0.00;;
19388;SDS011;9830;41.876;23.474;2023-04-03T13:37:23;0.20;;;0.20;;
19388;SDS011;9830;41.876;23.474;2023-04-03T13:42:31;0.60;;;0.57;;
19388;SDS011;9830;41.876;23.474;2023-04-03T13:47:51;0.00;;;0.00;;
19388;SDS011;9830;41.876;23.474;2023-04-03T13:50:25;0.07;;;0.07;;
19388;SDS011;9830;41.876;23.474;2023-04-03T13:52:54;0.37;;;0.37;;
19388;SDS011;9830;41.876;23.474;2023-04-03T13:55:32;3.20;;;0.93;;
19388;SDS011;9830;41.876;23.474;2023-04-03T13:58:02;0.00;;;0.00;;
19388;SDS011;9830;41.876;23.474;2023-04-03T14:00:56;0.10;;;0.10;;
19388;SDS011;9830;41.876;23.474;2023-04-03T14:03:33;0.20;;;0.13;;
19388;SDS011;9830;41.876;23.474;2023-04-03T14:06:06;0.00;;;0.00;;
19388;SDS011;9830;41.876;23.474;2023-04-03T14:08:35;0.50;;;0.50;;
19388;SDS011;9830;41.876;23.474;2023-04-03T14:11:01;0.00;;;0.00;;
19388;SDS011;9830;41.876;23.474;2023-04-03T14:13:29;0.00;;;0.00;;
19388;SDS011;9830;41.876;23.474;2023-04-03T14:15:56;0.57;;;0.57;;
19388;SDS011;9830;41.876;23.474;2023-04-03T14:18:22;0.10;;;0.10;;
19388;SDS011;9830;41.876;23.474;2023-04-03T14:20:49;0.00;;;0.00;;
19388;SDS011;9830;41.876;23.474;2023-04-03T14:23:15;0.43;;;0.30;;
19388;SDS011;9830;41.876;23.474;2023-04-03T14:25:41;0.00;;;0.00;;
19388;SDS011;9830;41.876;23.474;2023-04-03T14:28:15;0.00;;;0.00;;
19388;SDS011;9830;41.876;23.474;2023-04-03T14:30:47;0.00;;;0.00;;
19388;SDS011;9830;41.876;23.474;2023-04-03T14:33:17;0.00;;;0.00;;
19388;SDS011;9830;41.876;23.474;2023-04-03T14:35:45;0.10;;;0.10;;
19388;SDS011;9830;41.876;23.474;2023-04-03T14:38:15;1.03;;;0.13;;
19388;SDS011;9830;41.876;23.474;2023-04-03T14:40:50;0.10;;;0.10;;
19388;SDS011;9830;41.876;23.474;2023-04-03T14:43:16;0.00;;;0.00;;
19388;SDS011;9830;41.876;23.474;2023-04-03T14:45:43;0.10;;;0.10;;
19388;SDS011;9830;41.876;23.474;2023-04-03T14:48:11;0.03;;;0.03;;
19388;SDS011;9830;41.876;23.474;2023-04-03T14:50:49;0.37;;;0.07;;
19388;SDS011;9830;41.876;23.474;2023-04-03T14:53:16;0.00;;;0.00;;
19388;SDS011;9830;41.876;23.474;2023-04-03T14:55:46;0.97;;;0.97;;
19388;SDS011;9830;41.876;23.474;2023-04-03T14:58:17;0.83;;;0.63;;
19388;SDS011;9830;41.876;23.474;2023-04-03T15:00:45;0.00;;;0.00;;
19388;SDS011;9830;41.876;23.474;2023-04-03T15:03:12;0.10;;;0.10;;
19388;SDS011;9830;41.876;23.474;2023-04-03T15:05:43;0.00;;;0.00;;
19388;SDS011;9830;41.876;23.474;2023-04-03T15:08:24;0.00;;;0.00;;
19388;SDS011;9830;41.876;23.474;2023-04-03T15:10:52;1.03;;;0.10;;
19388;SDS011;9830;41.876;23.474;2023-04-03T15:13:18;0.03;;;0.03;;
19388;SDS011;9830;41.876;23.474;2023-04-03T15:15:44;0.83;;;0.30;;
19388;SDS011;9830;41.876;23.474;2023-04-03T15:18:21;0.10;;;0.10;;
19388;SDS011;9830;41.876;23.474;2023-04-03T15:20:51;0.00;;;0.00;;
19388;SDS011;9830;41.876;23.474;2023-04-03T15:23:17;0.00;;;0.00;;
19388;SDS011;9830;41.876;23.474;2023-04-03T15:25:43;0.00;;;0.00;;
19388;SDS011;9830;41.876;23.474;2023-04-03T15:28:22;0.63;;;0.13;;
19388;SDS011;9830;41.876;23.474;2023-04-03T15:30:52;0.00;;;0.00;;
19388;SDS011;9830;41.876;23.474;2023-04-03T15:33:18;0.00;;;0.00;;
19388;SDS011;9830;41.876;23.474;2023-04-03T15:35:45;0.00;;;0.00;;
19388;SDS011;9830;41.876;23.474;2023-04-03T15:38:11;0.57;;;0.23;;
19388;SDS011;9830;41.876;23.474;2023-04-03T15:40:36;0.00;;;0.00;;
19388;SDS011;9830;41.876;23.474;2023-04-03T15:43:03;0.00;;;0.00;;
19388;SDS011;9830;41.876;23.474;2023-04-03T15:45:29;0.00;;;0.00;;
19388;SDS011;9830;41.876;23.474;2023-04-03T15:47:55;0.03;;;0.00;;
19388;SDS011;9830;41.876;23.474;2023-04-03T15:50:22;0.10;;;0.10;;
19388;SDS011;9830;41.876;23.474;2023-04-03T15:52:49;0.60;;;0.33;;
19388;SDS011;9830;41.876;23.474;2023-04-03T15:55:19;0.00;;;0.00;;
19388;SDS011;9830;41.876;23.474;2023-04-03T15:57:46;0.00;;;0.00;;
19388;SDS011;9830;41.876;23.474;2023-04-03T16:00:12;0.20;;;0.20;;
19388;SDS011;9830;41.876;23.474;2023-04-03T16:02:39;0.00;;;0.00;;
19388;SDS011;9830;41.876;23.474;2023-04-03T16:05:05;0.50;;;0.50;;
19388;SDS011;9830;41.876;23.474;2023-04-03T16:07:31;0.00;;;0.00;;
19388;SDS011;9830;41.876;23.474;2023-04-03T16:09:57;0.53;;;0.53;;
19388;SDS011;9830;41.876;23.474;2023-04-03T16:12:23;0.00;;;0.00;;
19388;SDS011;9830;41.876;23.474;2023-04-03T16:14:48;0.27;;;0.27;;
19388;SDS011;9830;41.876;23.474;2023-04-03T16:17:14;0.00;;;0.00;;
19388;SDS011;9830;41.876;23.474;2023-04-03T16:19:40;0.20;;;0.20;;
19388;SDS011;9830;41.876;23.474;2023-04-03T16:22:06;0.00;;;0.00;;
19388;SDS011;9830;41.876;23.474;2023-04-03T16:24:32;0.07;;;0.07;;
19388;SDS011;9830;41.876;23.474;2023-04-03T16:26:58;0.13;;;0.13;;
19388;SDS011;9830;41.876;23.474;2023-04-03T16:29:23;0.00;;;0.00;;
19388;SDS011;9830;41.876;23.474;2023-04-03T16:31:49;0.00;;;0.00;;
19388;SDS011;9830;41.876;23.474;2023-04-03T16:34:16;0.17;;;0.17;;
19388;SDS011;9830;41.876;23.474;2023-04-03T16:36:42;0.00;;;0.00;;
19388;SDS011;9830;41.876;23.474;2023-04-03T16:39:08;0.00;;;0.00;;
19388;SDS011;9830;41.876;23.474;2023-04-03T16:41:35;0.00;;;0.00;;
19388;SDS011;9830;41.876;23.474;2023-04-03T16:44:01;0.47;;;0.30;;
19388;SDS011;9830;41.876;23.474;2023-04-03T16:46:27;0.00;;;0.00;;
19388;SDS011;9830;41.876;23.474;2023-04-03T16:48:53;0.00;;;0.00;;
19388;SDS011;9830;41.876;23.474;2023-04-03T16:51:18;0.10;;;0.10;;
19388;SDS011;9830;41.876;23.474;2023-04-03T16:53:44;0.00;;;0.00;;
19388;SDS011;9830;41.876;23.474;2023-04-03T16:56:10;0.00;;;0.00;;